Time;durP1;ratioP1;P1;durP2;ratioP2;P2;SDS_P1;SDS_P2;PMS_P1;PMS_P2;Temp;Humidity;BMP_temperature;BMP_pressure;BME280_temperature;BME280_humidity;BME280_pressure;Samples;Min_cycle;Max_cycle;Signal;HPM_P1;HPM_P2
2021/08/22 00:01:58;;;;;;;4.65;3.00;;;;;;;26.16;nan;95221.34;4969057;28;20025;-72
2021/08/22 00:04:23;;;;;;;5.43;3.10;;;;;;;26.15;nan;95225.31;4969458;28;20042;-72
2021/08/22 00:06:49;;;;;;;6.10;2.90;;;;;;;26.15;nan;95219.84;4968321;28;20027;-72
2021/08/22 00:09:14;;;;;;;5.15;3.15;;;;;;;26.13;nan;95216.91;4968668;28;20394;-72
2021/08/22 00:11:40;;;;;;;5.88;3.13;;;;;;;26.15;nan;95219.84;4966754;28;20045;-72
2021/08/22 00:14:05;;;;;;;5.18;3.35;;;;;;;26.12;nan;95226.38;4949576;29;20029;-73
2021/08/22 00:16:31;;;;;;;5.47;3.00;;;;;;;26.13;nan;95233.34;4949502;29;20031;-72
2021/08/22 00:18:56;;;;;;;4.18;3.25;;;;;;;26.09;nan;95238.38;4949463;28;20031;-72
2021/08/22 00:21:22;;;;;;;4.63;3.00;;;;;;;26.13;nan;95233.34;4932963;29;20027;-72
2021/08/22 00:23:47;;;;;;;4.90;3.15;;;;;;;26.09;nan;95249.31;4950085;29;20117;-72
2021/08/22 00:26:13;;;;;;;5.78;2.92;;;;;;;26.05;nan;95248.91;4948771;28;20406;-72
2021/08/22 00:28:38;;;;;;;5.70;2.90;;;;;;;26.03;nan;95262.34;4967774;28;20555;-72
2021/08/22 00:31:03;;;;;;;4.50;3.05;;;;;;;26.03;nan;95256.88;4968267;28;20065;-71
2021/08/22 00:33:29;;;;;;;4.93;3.20;;;;;;;25.99;nan;95261.94;4968182;28;20564;-71
2021/08/22 00:35:54;;;;;;;5.32;2.72;;;;;;;25.96;nan;95264.94;4969925;28;20035;-71
2021/08/22 00:38:20;;;;;;;4.20;2.92;;;;;;;25.95;nan;95266.94;4957998;28;20026;-71
2021/08/22 00:40:48;;;;;;;4.55;2.80;;;;;;;25.94;nan;95265.47;4950558;29;20035;-72
2021/08/22 00:43:13;;;;;;;4.60;3.38;;;;;;;25.93;nan;95257.78;4949661;29;20101;-73
2021/08/22 00:45:39;;;;;;;5.85;3.28;;;;;;;25.90;nan;95265.03;4956380;28;20510;-72
2021/08/22 00:48:05;;;;;;;5.78;3.22;;;;;;;25.86;nan;95264.59;4967837;28;20034;-72
2021/08/22 00:50:32;;;;;;;4.32;3.40;;;;;;;25.86;nan;95264.59;4968994;28;20035;-72
2021/08/22 00:52:58;;;;;;;4.45;3.22;;;;;;;25.84;nan;95264.38;4968886;28;20022;-72
2021/08/22 00:55:23;;;;;;;4.13;3.00;;;;;;;25.88;nan;95264.81;4969453;28;20125;-73
2021/08/22 00:57:49;;;;;;;4.43;3.28;;;;;;;25.85;nan;95263.09;4969969;28;20363;-72
2021/08/22 01:00:15;;;;;;;5.95;3.33;;;;;;;25.84;nan;95261.66;4969393;28;20093;-72
2021/08/22 01:02:53;;;;;;;5.03;3.45;;;;;;;25.82;nan;95258.66;4962580;28;20032;-72
2021/08/22 01:05:25;;;;;;;5.47;3.67;;;;;;;25.82;nan;95252.47;4950370;29;20039;-73
2021/08/22 01:08:01;;;;;;;5.80;3.15;;;;;;;25.82;nan;95242.25;4947835;28;20118;-73
2021/08/22 01:10:27;;;;;;;5.30;3.33;;;;;;;25.77;nan;95238.84;4933857;29;20766;-72
2021/08/22 01:12:58;;;;;;;6.00;3.00;;;;;;;25.78;nan;95245.81;4947908;28;20042;-73
2021/08/22 01:15:24;;;;;;;5.70;3.47;;;;;;;25.72;nan;95253.38;4947623;28;20596;-72
2021/08/22 01:17:51;;;;;;;4.70;3.25;;;;;;;25.67;nan;95241.25;4947432;28;20038;-72
2021/08/22 01:20:35;;;;;;;4.22;3.08;;;;;;;25.65;nan;95243.00;4968659;28;20027;-72
2021/08/22 01:23:02;;;;;;;5.10;3.08;;;;;;;25.65;nan;95237.53;4966445;28;20149;-73
2021/08/22 01:25:28;;;;;;;5.22;3.38;;;;;;;25.65;nan;95248.47;4952133;28;20045;-73
2021/08/22 01:27:53;;;;;;;4.97;3.50;;;;;;;25.69;nan;95248.94;4968234;28;20111;-73
2021/08/22 01:30:19;;;;;;;5.00;3.38;;;;;;;25.71;nan;95251.88;4969039;28;20473;-73
2021/08/22 01:32:45;;;;;;;5.53;3.35;;;;;;;25.73;nan;95254.84;4965939;28;20532;-72
2021/08/22 01:35:11;;;;;;;5.72;3.47;;;;;;;25.71;nan;95257.34;4968608;28;20461;-72
2021/08/22 01:37:38;;;;;;;4.18;3.50;;;;;;;25.67;nan;95262.41;4967870;28;20091;-72
2021/08/22 01:40:04;;;;;;;4.82;3.13;;;;;;;25.70;nan;95261.38;4966890;28;20038;-71
2021/08/22 01:42:30;;;;;;;4.30;3.13;;;;;;;25.66;nan;95255.44;4951552;28;20133;-71
2021/08/22 01:44:57;;;;;;;5.72;3.33;;;;;;;25.67;nan;95249.44;4951215;28;20126;-72
2021/08/22 01:47:22;;;;;;;4.68;3.13;;;;;;;25.70;nan;95250.41;4967595;28;20092;-71
2021/08/22 01:49:47;;;;;;;6.97;3.55;;;;;;;25.66;nan;95250.69;4951113;28;20023;-72
2021/08/22 01:52:13;;;;;;;5.50;3.10;;;;;;;25.63;nan;95245.50;4968678;28;20023;-73
2021/08/22 01:54:38;;;;;;;4.40;3.53;;;;;;;25.69;nan;95255.13;4941216;29;20777;-73
2021/08/22 01:57:05;;;;;;;7.80;3.45;;;;;;;25.67;nan;95251.47;4931063;29;20571;-71
2021/08/22 01:59:34;;;;;;;7.40;3.47;;;;;;;25.66;nan;95260.91;4959907;28;20030;-72
2021/08/22 02:01:59;;;;;;;6.65;3.40;;;;;;;25.64;nan;95257.94;4968040;28;20051;-72
2021/08/22 02:04:29;;;;;;;4.38;3.15;;;;;;;25.62;nan;95261.19;4965979;28;20039;-72
2021/08/22 02:06:55;;;;;;;4.22;3.33;;;;;;;25.60;nan;95258.22;4951309;28;20553;-71
2021/08/22 02:09:30;;;;;;;4.55;2.70;;;;;;;25.62;nan;95260.44;4965449;28;20031;-72
2021/08/22 02:12:00;;;;;;;4.45;3.45;;;;;;;25.60;nan;95263.69;4954802;28;20041;-72
2021/08/22 02:14:25;;;;;;;5.40;3.20;;;;;;;25.61;nan;95253.50;4934393;28;20045;-72
2021/08/22 02:16:53;;;;;;;5.45;3.20;;;;;;;25.58;nan;95254.53;4932417;28;20039;-72
2021/08/22 02:19:19;;;;;;;3.50;2.92;;;;;;;25.47;nan;95241.00;4948222;28;20058;-72
2021/08/22 02:21:44;;;;;;;4.63;3.30;;;;;;;25.55;nan;95250.09;4949923;28;20037;-72
2021/08/22 02:24:09;;;;;;;6.45;3.50;;;;;;;25.54;nan;95248.63;4965709;28;20039;-72
2021/08/22 02:26:35;;;;;;;5.90;3.30;;;;;;;25.55;nan;95250.09;4949566;28;20080;-73
2021/08/22 02:29:00;;;;;;;4.63;3.25;;;;;;;25.51;nan;95249.66;4967744;28;20035;-73
2021/08/22 02:31:29;;;;;;;6.38;3.60;;;;;;;25.54;nan;95254.09;4967340;28;20038;-72
2021/08/22 02:33:58;;;;;;;6.18;3.42;;;;;;;25.50;nan;95253.63;4966746;28;20053;-72
2021/08/22 02:36:23;;;;;;;4.45;3.08;;;;;;;25.47;nan;95249.19;4967762;28;20054;-73
2021/08/22 02:38:49;;;;;;;4.85;3.30;;;;;;;25.44;nan;95255.69;4946263;28;20046;-73
2021/08/22 02:41:14;;;;;;;5.32;3.40;;;;;;;25.43;nan;95254.22;4966201;28;20110;-73
2021/08/22 02:43:40;;;;;;;4.15;3.25;;;;;;;25.41;nan;95257.47;4966694;28;20031;-73
2021/08/22 02:46:05;;;;;;;5.40;3.60;;;;;;;25.37;nan;95259.03;4967426;28;20027;-73
2021/08/22 02:48:31;;;;;;;4.32;3.25;;;;;;;25.36;nan;95254.81;4966266;28;20031;-73
2021/08/22 02:50:57;;;;;;;4.85;3.55;;;;;;;25.32;nan;95248.91;4967660;28;20031;-73
2021/08/22 02:53:22;;;;;;;5.35;3.67;;;;;;;25.31;nan;95241.97;4966882;28;20031;-72
2021/08/22 02:55:48;;;;;;;4.53;3.40;;;;;;;25.32;nan;95259.84;4948948;28;20086;-72
2021/08/22 02:58:14;;;;;;;5.15;3.70;;;;;;;25.32;nan;95254.38;4947822;29;20058;-72
2021/08/22 03:00:39;;;;;;;5.72;3.65;;;;;;;25.30;nan;95250.69;4946962;29;20521;-72
2021/08/22 03:03:04;;;;;;;4.60;3.28;;;;;;;25.29;nan;95255.41;4947190;28;20600;-72
2021/08/22 03:05:30;;;;;;;6.07;3.50;;;;;;;25.29;nan;95255.41;4947179;29;20027;-72
2021/08/22 03:07:55;;;;;;;6.22;4.10;;;;;;;25.26;nan;95250.97;4947328;29;20038;-72
2021/08/22 03:10:21;;;;;;;5.05;3.28;;;;;;;25.22;nan;95256.00;4947838;29;20034;-72
2021/08/22 03:12:46;;;;;;;5.32;3.00;;;;;;;25.22;nan;95256.00;4949217;28;20058;-72
2021/08/22 03:15:12;;;;;;;5.57;3.95;;;;;;;25.23;nan;95257.47;4946687;29;20023;-72
2021/08/22 03:17:37;;;;;;;5.05;2.90;;;;;;;25.24;nan;95261.66;4947050;29;20015;-72
2021/08/22 03:20:04;;;;;;;4.95;3.30;;;;;;;25.18;nan;95260.25;4945469;28;20035;-72
2021/08/22 03:22:30;;;;;;;4.70;3.42;;;;;;;25.20;nan;95263.97;4947321;29;20019;-72
2021/08/22 03:24:55;;;;;;;4.45;3.50;;;;;;;25.22;nan;95256.00;4946614;29;20458;-72
2021/08/22 03:27:21;;;;;;;4.50;3.05;;;;;;;25.20;nan;95258.50;4948474;28;20034;-71
2021/08/22 03:29:46;;;;;;;4.60;3.20;;;;;;;25.22;nan;95266.91;4966670;28;20097;-72
2021/08/22 03:32:12;;;;;;;5.65;3.42;;;;;;;25.23;nan;95262.94;4964977;28;20038;-72
2021/08/22 03:34:37;;;;;;;4.97;3.50;;;;;;;25.23;nan;95265.69;4945518;28;20149;-72
2021/08/22 03:37:03;;;;;;;4.60;3.13;;;;;;;25.23;nan;95262.94;4947026;28;20085;-72
2021/08/22 03:39:28;;;;;;;5.38;3.00;;;;;;;25.19;nan;95256.28;4955758;28;20030;-72
2021/08/22 03:41:55;;;;;;;4.65;3.10;;;;;;;25.21;nan;95270.91;4967112;28;20029;-70
2021/08/22 03:44:20;;;;;;;6.07;3.50;;;;;;;25.20;nan;95280.38;4966111;28;20055;-72
2021/08/22 03:46:45;;;;;;;4.80;3.22;;;;;;;25.21;nan;95270.91;4966800;28;20113;-72
2021/08/22 03:49:11;;;;;;;5.88;3.25;;;;;;;25.22;nan;95272.38;4967031;28;20031;-72
2021/08/22 03:51:36;;;;;;;5.03;3.22;;;;;;;25.23;nan;95268.41;4967587;28;20066;-71
2021/08/22 03:54:02;;;;;;;4.43;3.20;;;;;;;25.21;nan;95270.91;4961348;28;20043;-72
2021/08/22 03:56:27;;;;;;;6.38;4.35;;;;;;;25.22;nan;95272.38;4966635;28;20039;-72
2021/08/22 03:58:53;;;;;;;4.60;3.33;;;;;;;25.19;nan;95273.41;4962864;28;20038;-72
2021/08/22 04:01:18;;;;;;;5.05;3.13;;;;;;;25.16;nan;95268.97;4948432;28;20035;-72
2021/08/22 04:03:44;;;;;;;5.25;3.05;;;;;;;25.14;nan;95282.44;4948105;28;20051;-72
2021/08/22 04:06:09;;;;;;;4.82;3.10;;;;;;;25.20;nan;95274.91;4964857;28;20034;-72
2021/08/22 04:08:35;;;;;;;5.63;3.20;;;;;;;25.21;nan;95281.84;4966492;28;20125;-73
2021/08/22 04:11:01;;;;;;;5.82;2.97;;;;;;;25.22;nan;95288.78;4965708;28;20494;-72
2021/08/22 04:13:26;;;;;;;5.43;3.13;;;;;;;25.20;nan;95285.84;4966979;28;20086;-73
2021/08/22 04:15:52;;;;;;;4.65;2.97;;;;;;;25.20;nan;95285.84;4964565;28;20378;-73
2021/08/22 04:18:17;;;;;;;4.63;3.40;;;;;;;25.18;nan;95293.78;4966144;28;20180;-73
2021/08/22 04:20:43;;;;;;;4.10;2.92;;;;;;;25.19;nan;95289.81;4965743;28;20524;-72
2021/08/22 04:23:08;;;;;;;6.28;2.92;;;;;;;25.19;nan;95289.09;4950759;28;20387;-73
2021/08/22 04:25:34;;;;;;;6.80;3.28;;;;;;;25.18;nan;95293.78;4947193;29;20410;-73
2021/08/22 04:27:59;;;;;;;4.38;3.03;;;;;;;25.18;nan;95299.25;4945145;28;20082;-72
2021/08/22 04:30:25;;;;;;;5.30;3.15;;;;;;;25.17;nan;95297.81;4947358;29;20030;-73
2021/08/22 04:32:50;;;;;;;5.57;3.10;;;;;;;25.15;nan;95294.81;4946951;29;20027;-72
2021/08/22 04:35:16;;;;;;;4.60;3.08;;;;;;;25.19;nan;95300.75;4935782;29;20694;-73
2021/08/22 04:37:42;;;;;;;4.68;3.38;;;;;;;25.15;nan;95300.28;4946249;29;20050;-72
2021/08/22 04:40:08;;;;;;;4.15;3.00;;;;;;;25.20;nan;95302.25;4960276;28;20038;-72
2021/08/22 04:42:33;;;;;;;4.20;2.97;;;;;;;25.19;nan;95295.28;4968063;28;20387;-72
2021/08/22 04:44:59;;;;;;;4.60;3.13;;;;;;;25.17;nan;95303.28;4968257;28;20023;-72
2021/08/22 04:47:25;;;;;;;6.85;3.03;;;;;;;25.17;nan;95303.28;4957683;28;20039;-72
2021/08/22 04:49:50;;;;;;;5.20;3.45;;;;;;;25.20;nan;95302.25;4950482;29;20081;-73
2021/08/22 04:52:16;;;;;;;5.93;3.42;;;;;;;25.22;nan;95304.47;4948893;29;20561;-73
2021/08/22 04:54:42;;;;;;;5.22;3.30;;;;;;;25.20;nan;95313.19;4955768;28;20525;-72
2021/08/22 04:57:07;;;;;;;4.43;2.95;;;;;;;25.11;nan;95310.78;4969629;28;20035;-72
2021/08/22 04:59:33;;;;;;;5.38;3.15;;;;;;;25.03;nan;95315.31;4966800;28;20488;-72
2021/08/22 05:01:58;;;;;;;5.22;3.35;;;;;;;25.01;nan;95317.84;4949999;29;20027;-72
2021/08/22 05:04:24;;;;;;;5.88;3.20;;;;;;;24.96;nan;95326.81;4948218;29;20055;-71
2021/08/22 05:06:49;;;;;;;4.63;3.15;;;;;;;24.93;nan;95327.84;4944179;28;20061;-72
2021/08/22 05:09:15;;;;;;;4.53;3.20;;;;;;;24.93;nan;95327.84;4969353;28;20031;-72
2021/08/22 05:11:40;;;;;;;5.30;3.10;;;;;;;24.93;nan;95321.59;4968290;28;20035;-72
2021/08/22 05:14:05;;;;;;;5.60;3.25;;;;;;;24.96;nan;95326.81;4950760;28;20046;-72
2021/08/22 05:16:31;;;;;;;5.45;3.20;;;;;;;24.94;nan;95323.09;4949934;28;20038;-72
2021/08/22 05:18:57;;;;;;;4.43;3.20;;;;;;;24.98;nan;95318.84;4931315;29;20031;-71
2021/08/22 05:21:22;;;;;;;5.03;2.63;;;;;;;24.97;nan;95328.28;4948178;28;20030;-71
2021/08/22 05:23:48;;;;;;;4.38;3.15;;;;;;;24.95;nan;95324.59;4949877;28;20011;-69
2021/08/22 05:26:13;;;;;;;7.20;3.60;;;;;;;25.00;nan;95316.34;4931088;29;20042;-69
2021/08/22 05:28:39;;;;;;;4.57;2.90;;;;;;;25.03;nan;95326.25;4948431;29;20554;-70
2021/08/22 05:31:04;;;;;;;4.60;2.90;;;;;;;25.05;nan;95323.78;4948606;28;20035;-71
2021/08/22 05:33:30;;;;;;;5.82;2.92;;;;;;;25.05;nan;95321.03;4951732;28;20035;-69
2021/08/22 05:35:55;;;;;;;5.57;3.05;;;;;;;25.06;nan;95325.22;4949138;28;20147;-69
2021/08/22 05:38:20;;;;;;;5.78;2.90;;;;;;;25.07;nan;95326.72;4948482;29;20027;-70
2021/08/22 05:40:46;;;;;;;6.45;3.00;;;;;;;25.09;nan;95323.47;4948110;29;20031;-69
2021/08/22 05:43:11;;;;;;;3.95;2.75;;;;;;;25.09;nan;95328.94;4948710;29;20030;-70
2021/08/22 05:45:37;;;;;;;5.40;3.30;;;;;;;25.11;nan;95316.25;4947093;29;20023;-70
2021/08/22 05:48:03;;;;;;;3.95;3.00;;;;;;;25.14;nan;95323.44;4948096;29;20023;-70
2021/08/22 05:50:28;;;;;;;4.90;3.22;;;;;;;25.18;nan;95326.59;4948571;29;20434;-70
2021/08/22 05:52:54;;;;;;;4.43;3.33;;;;;;;25.23;nan;95323.09;4947882;28;20028;-69
2021/08/22 05:55:20;;;;;;;8.68;3.50;;;;;;;25.30;nan;95322.50;4947505;29;20031;-69
2021/08/22 05:57:45;;;;;;;5.95;3.20;;;;;;;25.37;nan;95321.91;4948501;29;20054;-69
2021/08/22 06:00:11;;;;;;;7.72;3.40;;;;;;;25.51;nan;95326.22;4947152;29;20059;-69
2021/08/22 06:02:36;;;;;;;5.97;3.10;;;;;;;25.59;nan;95327.09;4947852;29;20086;-70
2021/08/22 06:05:04;;;;;;;5.55;3.17;;;;;;;25.69;nan;95325.53;4947980;29;20047;-70
2021/08/22 06:07:29;;;;;;;4.88;3.50;;;;;;;25.79;nan;95323.91;4946922;29;20066;-69
2021/08/22 06:09:55;;;;;;;6.22;3.70;;;;;;;25.87;nan;95323.53;4947870;29;20607;-72
2021/08/22 06:12:20;;;;;;;4.78;3.25;;;;;;;25.95;nan;95323.69;4947783;29;20335;-71
2021/08/22 06:14:46;;;;;;;7.50;3.33;;;;;;;26.06;nan;95327.00;4947726;29;20030;-71
2021/08/22 06:17:11;;;;;;;5.18;3.72;;;;;;;26.14;nan;95322.38;4941282;29;20034;-72
2021/08/22 06:19:37;;;;;;;5.18;3.25;;;;;;;26.20;nan;95314.84;4948108;29;20490;-72
2021/08/22 06:22:04;;;;;;;5.95;3.85;;;;;;;26.30;nan;95318.72;4947936;29;20817;-70
2021/08/22 06:24:30;;;;;;;6.35;3.65;;;;;;;26.40;nan;95322.53;4947772;29;20031;-70
2021/08/22 06:26:55;;;;;;;5.18;3.88;;;;;;;26.47;nan;95316.44;4947858;29;20057;-70
2021/08/22 06:29:21;;;;;;;6.45;3.85;;;;;;;26.56;nan;95307.81;4947694;29;20042;-69
2021/08/22 06:31:46;;;;;;;6.90;3.53;;;;;;;26.64;nan;95314.19;4929773;29;20035;-71
2021/08/22 06:34:12;;;;;;;4.75;3.38;;;;;;;26.76;nan;95310.00;4948131;29;20027;-71
2021/08/22 06:36:40;;;;;;;6.63;3.65;;;;;;;26.80;nan;95311.13;4951227;28;20030;-73
2021/08/22 06:39:06;;;;;;;5.60;3.53;;;;;;;26.83;nan;95321.81;4949147;28;20406;-73
2021/08/22 06:41:32;;;;;;;7.47;4.13;;;;;;;26.91;nan;95317.22;4960467;28;20727;-70
2021/08/22 06:43:58;;;;;;;6.70;3.92;;;;;;;26.83;nan;95316.34;4930830;29;20058;-72
2021/08/22 06:46:23;;;;;;;7.28;3.60;;;;;;;27.01;nan;95321.03;4948852;28;20534;-72
2021/08/22 06:48:49;;;;;;;7.38;3.65;;;;;;;27.05;nan;95310.47;4951971;28;20118;-69
2021/08/22 06:51:14;;;;;;;5.97;3.88;;;;;;;27.16;nan;95315.75;4938569;29;20566;-72
2021/08/22 06:53:40;;;;;;;5.40;3.88;;;;;;;27.21;nan;95317.66;4951711;28;20019;-75
2021/08/22 06:56:05;;;;;;;5.22;3.55;;;;;;;27.28;nan;95317.03;4970004;29;20548;-77
2021/08/22 06:58:31;;;;;;;5.72;3.25;;;;;;;27.33;nan;95329.91;4971347;29;20039;-74
2021/08/22 07:00:56;;;;;;;5.70;3.67;;;;;;;27.42;nan;95304.78;4972387;29;20028;-74
2021/08/22 07:03:22;;;;;;;5.60;3.40;;;;;;;27.49;nan;95312.38;4955435;29;20097;-74
2021/08/22 07:05:47;;;;;;;5.55;3.83;;;;;;;27.53;nan;95318.31;4947740;28;20043;-79
2021/08/22 07:08:13;;;;;;;5.07;3.60;;;;;;;27.60;nan;95309.44;4946559;29;20027;-74
2021/08/22 07:10:39;;;;;;;6.00;3.92;;;;;;;27.73;nan;95334.09;4941428;29;20035;-75
2021/08/22 07:13:04;;;;;;;5.07;3.53;;;;;;;27.70;nan;95329.66;4938684;29;20069;-76
2021/08/22 07:15:30;;;;;;;6.18;3.42;;;;;;;27.75;nan;95327.53;4929113;29;20595;-78
2021/08/22 07:17:55;;;;;;;5.00;3.30;;;;;;;27.83;nan;95320.16;4945352;29;20043;-78
2021/08/22 07:20:21;;;;;;;4.47;3.28;;;;;;;27.90;nan;95316.75;4947796;28;20514;-79
2021/08/22 07:22:46;;;;;;;4.75;3.35;;;;;;;27.92;nan;95318.97;4947645;29;20417;-75
2021/08/22 07:25:12;;;;;;;6.57;3.80;;;;;;;27.97;nan;95315.38;4945488;29;20039;-78
2021/08/22 07:27:37;;;;;;;4.40;3.50;;;;;;;28.00;nan;95309.56;4946517;29;20402;-71
2021/08/22 07:30:03;;;;;;;5.53;3.67;;;;;;;28.07;nan;95322.63;4943933;29;20042;-71
2021/08/22 07:32:29;;;;;;;5.00;4.00;;;;;;;28.10;nan;95316.09;4938321;29;20043;-72
2021/08/22 07:34:54;;;;;;;4.57;3.55;;;;;;;28.16;nan;95311.22;4946202;28;20039;-72
2021/08/22 07:37:19;;;;;;;5.93;3.50;;;;;;;28.16;nan;95322.22;4946646;29;20035;-73
2021/08/22 07:39:45;;;;;;;5.82;3.92;;;;;;;28.22;nan;95314.59;4945801;29;20146;-73
2021/08/22 07:42:10;;;;;;;4.90;3.78;;;;;;;28.29;nan;95313.91;4946785;29;20038;-72
2021/08/22 07:44:36;;;;;;;8.80;3.97;;;;;;;28.30;nan;95309.91;4946655;29;20027;-72
2021/08/22 07:47:01;;;;;;;5.65;3.17;;;;;;;28.35;nan;95317.28;4945918;28;20068;-73
2021/08/22 07:49:27;;;;;;;6.47;3.60;;;;;;;28.28;nan;95317.91;4947322;29;20038;-71
2021/08/22 07:51:52;;;;;;;6.28;3.72;;;;;;;28.34;nan;95321.28;4946297;28;20036;-71
2021/08/22 07:54:18;;;;;;;6.15;3.75;;;;;;;28.35;nan;95300.78;4928856;29;20025;-72
2021/08/22 07:56:43;;;;;;;4.82;3.50;;;;;;;28.48;nan;95308.97;4929397;29;20031;-71
2021/08/22 07:59:09;;;;;;;6.00;3.80;;;;;;;28.44;nan;95311.31;4946460;28;20047;-74
2021/08/22 08:01:34;;;;;;;6.10;3.60;;;;;;;28.60;nan;95315.69;4929500;29;20039;-74
2021/08/22 08:04:00;;;;;;;5.38;3.92;;;;;;;28.59;nan;95308.69;4929534;29;20438;-73
2021/08/22 08:06:25;;;;;;;5.28;3.67;;;;;;;28.61;nan;95311.63;4946771;28;20039;-72
2021/08/22 08:08:51;;;;;;;5.40;3.95;;;;;;;28.74;nan;95304.84;4946946;28;20525;-76
2021/08/22 08:11:16;;;;;;;5.45;3.80;;;;;;;28.84;nan;95314.06;4946559;28;20038;-76
2021/08/22 08:13:42;;;;;;;6.38;3.85;;;;;;;28.85;nan;95307.31;4946424;28;20035;-71
2021/08/22 08:16:07;;;;;;;5.80;3.70;;;;;;;28.93;nan;95305.34;4946995;28;20777;-72
2021/08/22 08:18:33;;;;;;;4.78;3.90;;;;;;;28.97;nan;95303.00;4949554;28;20094;-73
2021/08/22 08:20:59;;;;;;;5.57;3.90;;;;;;;28.89;nan;95310.47;4950091;29;20410;-74
2021/08/22 08:23:25;;;;;;;8.35;3.65;;;;;;;29.01;nan;95294.41;4932597;29;20034;-71
2021/08/22 08:25:52;;;;;;;4.75;3.85;;;;;;;29.13;nan;95307.31;4949861;29;20023;-71
2021/08/22 08:28:18;;;;;;;5.32;3.72;;;;;;;29.20;nan;95301.13;4948620;29;20023;-74
2021/08/22 08:30:43;;;;;;;6.38;4.10;;;;;;;29.21;nan;95297.09;4949766;29;20035;-72
2021/08/22 08:33:08;;;;;;;5.80;3.85;;;;;;;29.22;nan;95298.56;4949560;29;20042;-72
2021/08/22 08:35:34;;;;;;;6.43;3.65;;;;;;;29.30;nan;95302.16;4950007;29;20034;-75
2021/08/22 08:37:59;;;;;;;5.85;3.50;;;;;;;29.32;nan;95302.34;4950356;28;20509;-77
2021/08/22 08:40:25;;;;;;;6.85;4.80;;;;;;;29.37;nan;95298.69;4949074;28;20027;-74
2021/08/22 08:42:54;;;;;;;7.00;3.80;;;;;;;29.44;nan;95289.75;4948400;29;20035;-72
2021/08/22 08:46:01;;;;;;;6.38;4.10;;;;;;;29.38;nan;95294.66;4947439;28;20674;-72
2021/08/22 08:48:36;;;;;;;5.82;4.20;;;;;;;29.43;nan;95285.50;4910712;29;20529;-73
2021/08/22 08:51:23;;;;;;;5.15;3.80;;;;;;;29.53;nan;95286.47;4948976;29;20050;-71
2021/08/22 08:53:49;;;;;;;5.55;3.65;;;;;;;29.52;nan;95287.75;4931476;29;20095;-73
2021/08/22 08:56:19;;;;;;;5.28;3.67;;;;;;;29.39;nan;95279.63;4948459;29;20027;-73
2021/08/22 08:58:45;;;;;;;5.22;3.80;;;;;;;29.34;nan;95283.25;4931702;29;20060;-75
2021/08/22 09:01:10;;;;;;;7.43;3.90;;;;;;;29.35;nan;95279.22;4931907;29;21571;-76
2021/08/22 09:03:36;;;;;;;6.53;3.58;;;;;;;29.50;nan;95279.31;4948177;29;20466;-71
2021/08/22 09:06:04;;;;;;;7.20;3.78;;;;;;;29.62;nan;95274.97;4932182;29;20035;-73
2021/08/22 09:08:48;;;;;;;6.13;3.92;;;;;;;29.65;nan;95290.38;4948920;29;20031;-72
2021/08/22 09:12:08;;;;;;;6.35;3.97;;;;;;;29.69;nan;95275.72;4950544;28;20047;-72
2021/08/22 09:14:52;;;;;;;;;;;;;;;29.67;nan;95272.78;4893607;29;20169;-72
2021/08/22 09:17:55;;;;;;;4.85;3.50;;;;;;;29.67;nan;95268.56;4941831;29;19918;-74
2021/08/22 09:20:45;;;;;;;8.35;3.70;;;;;;;29.69;nan;95270.22;4948695;29;20027;-73
2021/08/22 09:23:11;;;;;;;5.55;3.55;;;;;;;29.67;nan;95271.31;4948466;29;20034;-73
2021/08/22 09:25:54;;;;;;;6.97;3.70;;;;;;;29.56;nan;95266.13;4948819;28;20311;-73
2021/08/22 09:28:59;;;;;;;5.45;3.20;;;;;;;29.79;nan;95264.91;4947891;28;20042;-72
2021/08/22 09:31:40;;;;;;;5.78;3.20;;;;;;;29.87;nan;95277.47;4943481;28;20027;-73
2021/08/22 09:34:42;;;;;;;5.28;3.05;;;;;;;29.84;nan;95264.78;4948954;28;20126;-73
2021/08/22 09:37:09;;;;;;;4.32;3.10;;;;;;;29.96;nan;95254.91;4949106;28;20065;-73
2021/08/22 09:40:12;;;;;;;6.50;3.42;;;;;;;30.11;nan;95260.47;4948277;29;20046;-72
2021/08/22 09:43:11;;;;;;;6.22;3.47;;;;;;;30.03;nan;95254.19;4940325;29;20110;-71
2021/08/22 09:46:14;;;;;;;5.35;3.20;;;;;;;30.00;nan;95249.03;4943491;28;20529;-72
2021/08/22 09:49:18;;;;;;;6.43;3.33;;;;;;;30.03;nan;95243.19;4948400;29;20042;-72
2021/08/22 09:51:50;;;;;;;5.15;3.45;;;;;;;29.95;nan;95245.16;4948338;29;20027;-71
2021/08/22 09:54:45;;;;;;;4.95;2.88;;;;;;;30.00;nan;95246.28;4948000;29;20031;-72
2021/08/22 09:57:35;;;;;;;4.93;3.42;;;;;;;30.06;nan;95242.09;4948926;28;20042;-73
2021/08/22 10:00:25;;;;;;;4.90;3.33;;;;;;;30.04;nan;95244.63;4948711;28;20732;-73
2021/08/22 10:03:09;;;;;;;;;;;;;;;30.04;nan;95244.63;4948634;29;20031;-73
2021/08/22 10:06:07;;;;;;;5.80;3.30;;;;;;;30.16;nan;95240.25;4946612;29;19914;-72
2021/08/22 10:08:56;;;;;;;3.75;3.13;;;;;;;30.20;nan;95235.84;4948324;28;20030;-74
2021/08/22 10:11:28;;;;;;;6.50;3.45;;;;;;;30.20;nan;95235.13;4931092;29;20502;-73
2021/08/22 10:13:53;;;;;;;6.18;3.47;;;;;;;30.23;nan;95234.03;4928219;28;20654;-72
2021/08/22 10:16:19;;;;;;;6.18;3.17;;;;;;;30.16;nan;95240.25;4939338;28;20089;-73
2021/08/22 10:18:44;;;;;;;4.13;3.47;;;;;;;30.22;nan;95243.56;4948497;28;20122;-72
2021/08/22 10:21:11;;;;;;;5.45;3.60;;;;;;;30.25;nan;95232.19;4948023;28;20026;-71
2021/08/22 10:23:41;;;;;;;10.68;4.35;;;;;;;30.35;nan;95235.16;4947828;28;20027;-71
2021/08/22 10:26:06;;;;;;;6.30;3.75;;;;;;;30.32;nan;95225.22;4947576;28;20039;-74
2021/08/22 10:28:44;;;;;;;5.93;3.70;;;;;;;30.41;nan;95227.47;4948045;29;20043;-74
2021/08/22 10:31:13;;;;;;;5.70;3.92;;;;;;;30.42;nan;95223.41;4941503;28;20069;-72
2021/08/22 10:34:12;;;;;;;4.10;3.70;;;;;;;30.36;nan;95226.34;4939197;28;20118;-72
2021/08/22 10:36:37;;;;;;;4.25;3.42;;;;;;;30.26;nan;95221.91;4950286;28;20038;-72
2021/08/22 10:39:27;;;;;;;5.50;3.67;;;;;;;30.33;nan;95221.19;4925044;28;20039;-71
2021/08/22 10:41:59;;;;;;;6.18;3.70;;;;;;;30.33;nan;95221.91;4945274;29;20031;-73
2021/08/22 10:44:34;;;;;;;7.55;3.88;;;;;;;30.38;nan;95228.56;4942325;29;20026;-73
2021/08/22 10:47:07;;;;;;;5.13;3.97;;;;;;;30.42;nan;95206.84;4939696;28;20395;-72
2021/08/22 10:49:51;;;;;;;5.82;3.80;;;;;;;30.44;nan;95210.53;4947882;28;20039;-71
2021/08/22 10:52:23;;;;;;;6.30;4.18;;;;;;;30.53;nan;95212.03;4940584;29;20031;-75
2021/08/22 10:55:17;;;;;;;5.13;3.88;;;;;;;30.58;nan;95208.34;4942434;29;20061;-75
2021/08/22 10:57:51;;;;;;;5.60;3.90;;;;;;;30.44;nan;95204.31;4944538;29;20039;-77
2021/08/22 11:00:29;;;;;;;4.70;4.00;;;;;;;30.37;nan;95210.53;4947198;28;20450;-75
2021/08/22 11:02:59;;;;;;;6.47;3.78;;;;;;;30.32;nan;95203.16;4947249;28;20027;-75
2021/08/22 11:05:25;;;;;;;;;;;;;;;30.33;nan;95199.84;4930973;28;20109;-76
2021/08/22 11:07:55;;;;;;;4.60;3.67;;;;;;;30.37;nan;95199.50;4945908;28;20437;-75
2021/08/22 11:10:24;;;;;;;4.43;3.75;;;;;;;30.45;nan;95189.22;4928593;29;20027;-75
2021/08/22 11:12:51;;;;;;;5.13;3.70;;;;;;;30.50;nan;95191.06;4930344;29;20031;-75
2021/08/22 11:15:27;;;;;;;5.18;4.25;;;;;;;30.55;nan;95176.34;4947332;29;20042;-75
2021/08/22 11:17:57;;;;;;;5.32;4.07;;;;;;;30.69;nan;95184.59;4929992;29;20027;-80
2021/08/22 11:20:26;;;;;;;6.47;4.38;;;;;;;30.96;nan;95188.44;4946306;29;20043;-78
2021/08/22 11:23:22;;;;;;;5.63;4.22;;;;;;;30.98;nan;95185.88;4946329;29;20039;-79
2021/08/22 11:26:08;;;;;;;6.32;4.15;;;;;;;31.06;nan;95186.59;4934336;28;20621;-77
2021/08/22 11:28:34;;;;;;;4.57;4.05;;;;;;;31.27;nan;95178.78;4945905;29;20042;-78
2021/08/22 11:31:00;;;;;;;6.47;3.90;;;;;;;31.15;nan;95174.94;4947674;28;20114;-81
2021/08/22 11:33:28;;;;;;;5.00;4.20;;;;;;;31.06;nan;95170.03;4947223;29;20474;-86
2021/08/22 11:35:54;;;;;;;5.57;4.00;;;;;;;31.19;nan;95178.06;4930328;28;20031;-88
2021/08/22 11:38:19;;;;;;;4.95;3.67;;;;;;;31.35;nan;95173.97;4947219;29;20030;-78
2021/08/22 11:40:45;;;;;;;5.32;3.90;;;;;;;31.35;nan;95173.97;4955297;28;20034;-76
2021/08/22 11:43:13;;;;;;;7.30;4.63;;;;;;;31.36;nan;95167.91;4949943;28;20670;-76
2021/08/22 11:45:43;;;;;;;4.63;4.00;;;;;;;31.28;nan;95169.22;4953210;28;20031;-75
2021/08/22 11:48:16;;;;;;;4.82;4.13;;;;;;;31.30;nan;95166.63;4952392;28;20030;-73
2021/08/22 11:50:45;;;;;;;4.80;3.83;;;;;;;31.28;nan;95158.16;4929357;28;20031;-74
2021/08/22 11:53:10;;;;;;;7.07;4.60;;;;;;;31.28;nan;95158.16;4950252;29;20118;-75
2021/08/22 11:55:37;;;;;;;5.63;4.10;;;;;;;31.22;nan;95172.16;4933813;29;20102;-75
2021/08/22 11:58:10;;;;;;;6.22;4.30;;;;;;;31.28;nan;95169.22;4950902;29;20038;-80
2021/08/22 12:00:36;;;;;;;4.90;4.18;;;;;;;31.24;nan;95163.31;4961836;28;20130;-73